CSUN Campus Station - National Weather Service Data Page - PST Time




                Date      RH     Dew  Seasonal     Current   Max Air   Min Air    Wind    Wind    Wind    Gust     Bar    Rain
                Time       %   Point      Rain    Air Temp     Since     Since   Speed    Gust     Dir     Dir   Press   Total
                               Deg F    Inches       Deg F  Midnight  Midnight     MPH     MPH                      mb  Inches
------------------------------------------------------------------------------------------------------------------------------
    12/12/2017 00:00       4   -10.9      0.04        68.4      80.5      53.5       7      16     344     342    1021    0.00
    12/12/2017 00:10       4   -11.2      0.04        68.4      68.6      68.2       6      16     343     340    1021    0.00
    12/12/2017 00:20       4   -11.5      0.04        68.5      68.9      68.1       7      19     344     333    1021    0.00
    12/12/2017 00:30       4   -11.5      0.04        68.6      68.9      68.1       7      19     346     353    1021    0.00
    12/12/2017 00:40       4   -11.6      0.04        68.4      68.9      68.1       7      19     349       9    1021    0.00
    12/12/2017 00:50       4   -11.5      0.04        68.2      68.9      67.9       6      19     348     278    1021    0.00
    12/12/2017 01:00       4   -11.6      0.04        68.2      68.9      67.8       6      16     347     342    1021    0.00
    12/12/2017 01:10       4   -11.8      0.04        68.1      68.9      67.8       6      18     344     338    1021    0.00
    12/12/2017 01:20       4   -12.0      0.04        68.2      68.9      67.8       7      18     337     335    1021    0.00
    12/12/2017 01:30       4   -11.6      0.04        67.9      68.9      67.7       6      16     343     332    1021    0.00
    12/12/2017 01:40       4   -11.6      0.04        67.8      68.9      67.6       6      15     343       7    1021    0.00
    12/12/2017 01:50       4   -11.5      0.04        67.7      68.9      67.5       6      21     348     348    1021    0.00
    12/12/2017 02:00       4   -11.2      0.04        67.8      68.9      67.4       6      19     344     346    1021    0.00
    12/12/2017 02:10       4   -11.4      0.04        67.7      68.9      67.4       6      15     345     325    1021    0.00
    12/12/2017 02:20       4   -12.0      0.04        68.1      68.9      67.4       5      16     348     323    1021    0.00
    12/12/2017 02:30       4   -12.1      0.04        68.4      68.9      67.4       6      16     345     345    1021    0.00
    12/12/2017 02:40       3   -12.3      0.04        68.3      68.9      67.4       5      12     338     351    1021    0.00
    12/12/2017 02:50       4   -12.1      0.04        68.3      68.9      67.4       4      12     335     329    1021    0.00
    12/12/2017 03:00       4   -11.8      0.04        67.7      68.9      67.3       5      10     339     336    1021    0.00
    12/12/2017 03:10       4   -11.9      0.04        67.6      68.9      67.2       3      11     338     304    1021    0.00
    12/12/2017 03:20       4   -11.6      0.04        67.2      68.9      67.0       5      11     338     347    1021    0.00
    12/12/2017 03:30       4   -11.2      0.04        67.0      68.9      66.8       4       9     342     344    1021    0.00
    12/12/2017 03:40       4   -11.4      0.04        66.8      68.9      66.6       4      12     347     349    1021    0.00
    12/12/2017 03:50       4   -11.8      0.04        67.1      68.9      66.6       4      12     345     327    1021    0.00
    12/12/2017 04:00       4   -11.5      0.04        66.9      68.9      66.5       4      12     343     313    1021    0.00
    12/12/2017 04:10       4   -11.6      0.04        66.7      68.9      66.3       4      11     337     343    1021    0.00
    12/12/2017 04:20       4   -11.3      0.04        66.6      68.9      66.3       4       8     339     338    1021    0.00
    12/12/2017 04:30       4   -11.4      0.04        66.3      68.9      65.8       3       8     341     319    1021    0.00
    12/12/2017 04:40       4   -12.0      0.04        66.5      68.9      65.8       3       8     344      59    1021    0.00
    12/12/2017 04:50       4   -12.3      0.04        66.8      68.9      65.8       3       7     345     267    1021    0.00
    12/12/2017 05:00       4   -11.9      0.04        66.6      68.9      65.8       3       9     330      -0    1021    0.00
    12/12/2017 05:10       9    -2.6      0.04        63.6      68.9      60.1       1       5     154     319    1021    0.00
    12/12/2017 05:20      10     1.0      0.04        58.7      68.9      57.1       1       3     159     190    1021    0.00
    12/12/2017 05:30       8    -0.4      0.04        57.5      68.9      56.5       2       8     349       3    1021    0.00
    12/12/2017 05:40      11     0.4      0.04        58.6      68.9      56.5       2       8     216     348    1021    0.00
    12/12/2017 05:50      12     3.7      0.04        56.3      68.9      55.2       2       3     161     180    1021    0.00
    12/12/2017 06:00      12     3.3      0.04        54.6      68.9      54.0       2       3     135     189    1021    0.00
    12/12/2017 06:10      12     2.8      0.04        54.1      68.9      53.7       2       4     131     148    1021    0.00
    12/12/2017 06:20      12     2.2      0.04        53.9      68.9      53.7       1       3     110      96    1021    0.00
    12/12/2017 06:30      13     3.0      0.04        53.6      68.9      53.1       0       3     129     119    1021    0.00
    12/12/2017 06:40      12     2.6      0.04        53.4      68.9      53.1       2       4     155     157    1021    0.00
    12/12/2017 06:50      13     3.0      0.04        53.6      68.9      53.1       1       3     163     162    1021    0.00
    12/12/2017 07:00      14     4.2      0.04        52.8      68.9      52.3       0       2     159     173    1021    0.00
    12/12/2017 07:10      14     4.2      0.04        52.5      68.9      52.3       1       2     141     135    1021    0.00
    12/12/2017 07:20      15     6.4      0.04        52.5      68.9      52.2       1       4     146     175    1021    0.00
    12/12/2017 07:30      16     6.8      0.04        53.5      68.9      52.2       1       4     135      92    1021    0.00
    12/12/2017 07:40      13     6.3      0.04        54.5      68.9      52.2       2       4     134     158    1021    0.00
    12/12/2017 07:50      10     3.7      0.04        56.5      68.9      52.2       2       6      92       7    1021    0.00
    12/12/2017 08:00       5    -4.8      0.04        62.5      68.9      52.2       3      11     336     352    1021    0.00
    12/12/2017 08:10       5    -8.4      0.04        66.2      68.9      52.2       5      12     339     329    1021    0.00
    12/12/2017 08:20       4    -8.9      0.04        67.5      68.9      52.2       5      12     338     342    1021    0.00
    12/12/2017 08:30       4    -9.0      0.04        67.9      68.9      52.2       4      14     341     315    1021    0.00
    12/12/2017 08:40       4    -8.9      0.04        68.6      69.3      52.2       4      12     340     321    1021    0.00
    12/12/2017 08:50       4    -8.8      0.04        69.5      70.1      52.2       3      10     342       3    1021    0.00
    12/12/2017 09:00       4    -9.0      0.04        70.0      70.2      52.2       5      17     342     309    1021    0.00
    12/12/2017 09:10       4    -8.1      0.04        70.6      71.2      52.2       4      15     353       0    1021    0.00
    12/12/2017 09:20       4    -7.4      0.04        71.8      72.3      52.2       3      11     349     344    1021    0.00
    12/12/2017 09:30       4    -7.5      0.04        72.6      73.1      52.2       4      15     347     338    1021    0.00
    12/12/2017 09:40       4    -6.9      0.04        73.3      73.8      52.2       4      12     339     301    1021    0.00
    12/12/2017 09:50       4    -7.3      0.04        73.8      74.1      52.2       3      11     338     347    1021    0.00
    12/12/2017 10:00       4    -6.9      0.04        74.5      75.2      52.2       4      10     349     348    1021    0.00
    12/12/2017 10:10       4    -7.5      0.04        74.9      75.3      52.2       5      13     345     327    1021    0.00
    12/12/2017 10:20       4    -6.9      0.04        75.0      75.4      52.2       5      14     343     342    1021    0.00
    12/12/2017 10:30       4    -5.6      0.04        75.5      75.8      52.2       4      13     348      27    1021    0.00
    12/12/2017 10:40       4    -5.8      0.04        76.2      76.5      52.2       4      13     346       7    1021    0.00
    12/12/2017 10:50       3    -7.0      0.04        76.3      76.6      52.2       6      17     345     344    1020    0.00
    12/12/2017 11:00       4    -7.3      0.04        76.7      77.3      52.2       6      13     349     333    1020    0.00
    12/12/2017 11:10       4    -6.8      0.04        77.4      78.0      52.2       6      13     342     323    1020    0.00
    12/12/2017 11:20       3    -7.0      0.04        78.2      78.5      52.2       5      15     341     324    1020    0.00
    12/12/2017 11:30       3    -7.3      0.04        78.5      78.8      52.2       5      15     340     328    1020    0.00
    12/12/2017 11:40       3    -8.7      0.04        78.7      79.1      52.2       5      14     345     326    1019    0.00
    12/12/2017 11:50       3    -8.5      0.04        79.2      79.5      52.2       6      14     344     335    1019    0.00
    12/12/2017 12:00       3    -8.5      0.04        79.6      80.2      52.2       6      18     351     308    1019    0.00
    12/12/2017 12:10       2    -8.9      0.04        80.4      80.9      52.2       5      14     346     340    1019    0.00
    12/12/2017 12:20       3   -10.5      0.04        80.8      81.1      52.2       6      16     348     352    1018    0.00
    12/12/2017 12:30       2   -10.3      0.04        81.0      81.3      52.2       6      17     349     329    1018    0.00
    12/12/2017 12:40       2   -12.2      0.04        81.3      81.5      52.2       6      17     343     319    1018    0.00
    12/12/2017 12:50       2   -12.6      0.04        81.6      82.1      52.2       6      19     344     343    1018    0.00
    12/12/2017 13:00       2   -13.9      0.04        81.4      82.1      52.2       8      21     344     355    1017    0.00
    12/12/2017 13:10       2   -13.7      0.04        81.3      82.1      52.2       8      20     352     341    1017    0.00
    12/12/2017 13:20       2   -13.7      0.04        81.2      82.1      52.2       6      17     343     337    1017    0.00
    12/12/2017 13:30       2   -12.3      0.04        81.0      82.1      52.2       7      18     348     347    1017    0.00
    12/12/2017 13:40       2   -13.5      0.04        80.4      82.1      52.2       9      19     342      14    1017    0.00
    12/12/2017 13:50       2   -13.4      0.04        80.2      82.1      52.2       9      27     347     348    1017    0.00
    12/12/2017 14:00       2   -12.6      0.04        80.1      82.1      52.2       8      21     346     330    1016    0.00
    12/12/2017 14:10       2   -14.2      0.04        80.1      82.1      52.2       8      18     348     330    1016    0.00
    12/12/2017 14:20       2   -14.3      0.04        80.0      82.1      52.2       9      19     343      30    1016    0.00
    12/12/2017 14:30       2   -14.1      0.04        79.8      82.1      52.2       8      22     345     320    1016    0.00
    12/12/2017 14:40       2   -13.7      0.04        79.8      82.1      52.2       6      15     344     319    1016    0.00
    12/12/2017 14:50       2   -13.6      0.04        79.6      82.1      52.2       7      16     349     348    1016    0.00
    12/12/2017 15:00       2   -13.4      0.04        79.1      82.1      52.2       7      18     350     333    1016    0.00
    12/12/2017 15:10       2   -13.3      0.04        78.8      82.1      52.2       8      17     350     340    1016    0.00
    12/12/2017 15:20       2   -13.7      0.04        78.2      82.1      52.2       7      18     346     344    1016    0.00
    12/12/2017 15:30       2   -13.2      0.04        77.9      82.1      52.2       7      26     350     350    1016    0.00
    12/12/2017 15:40       2   -13.0      0.04        77.5      82.1      52.2       7      15     353       1    1016    0.00
    12/12/2017 15:50       2   -12.8      0.04        77.1      82.1      52.2       6      14     349      32    1016    0.00
    12/12/2017 16:00       3   -13.5      0.04        76.8      82.1      52.2       6      16     345     303    1016    0.00
    12/12/2017 16:10       3   -13.2      0.04        76.6      82.1      52.2       8      17     346     327    1016    0.00
    12/12/2017 16:20       3   -13.4      0.04        76.1      82.1      52.2       7      18     343     352    1016    0.00
    12/12/2017 16:30       3   -12.9      0.04        75.5      82.1      52.2       6      18     346       8    1016    0.00
    12/12/2017 16:40       3   -13.3      0.04        75.1      82.1      52.2       7      21     347     328    1016    0.00
    12/12/2017 16:50       3   -13.3      0.04        74.9      82.1      52.2       6      18     345       0    1016    0.00
    12/12/2017 17:00       3   -13.0      0.04        74.5      82.1      52.2       6      19     350       0    1016    0.00
    12/12/2017 17:10       3   -13.0      0.04        74.3      82.1      52.2       4      15     347     341    1016    0.00
    12/12/2017 17:20       3   -12.6      0.04        73.7      82.1      52.2       5      15     347     343    1016    0.00
    12/12/2017 17:30       3   -12.5      0.04        73.3      82.1      52.2       5      18     347     334    1016    0.00
    12/12/2017 17:40       3   -12.5      0.04        73.2      82.1      52.2       3      10     352       0    1016    0.00
    12/12/2017 17:50       3   -12.3      0.04        73.2      82.1      52.2       4      11     349     350    1016    0.00
    12/12/2017 18:00       3   -12.3      0.04        72.8      82.1      52.2       3      10     341     343    1016    0.00
    12/12/2017 18:10       3   -12.4      0.04        72.5      82.1      52.2       5      13     342     160    1016    0.00
    12/12/2017 18:20       3   -12.2      0.04        72.2      82.1      52.2       5      14     344     346    1016    0.00
    12/12/2017 18:30       3   -11.8      0.04        72.0      82.1      52.2       4      14     342     351    1016    0.00
    12/12/2017 18:40       3   -11.6      0.04        71.9      82.1      52.2       3      12     343       0    1016    0.00
    12/12/2017 18:50       3   -11.8      0.04        72.1      82.1      52.2       4      13     336     311    1016    0.00
    12/12/2017 19:00       3   -11.8      0.04        71.9      82.1      52.2       4      12     336     331    1016    0.00
    12/12/2017 19:10       3   -11.9      0.04        71.9      82.1      52.2       5      15     346     343    1016    0.00
    12/12/2017 19:20       3   -11.6      0.04        71.7      82.1      52.2       4      13     346     347    1016    0.00
    12/12/2017 19:30       3   -11.9      0.04        71.6      82.1      52.2       5      16     343     349    1016    0.00
    12/12/2017 19:40       3   -11.8      0.04        71.5      82.1      52.2       4      14     352     337    1016    0.00
    12/12/2017 19:50       3   -11.8      0.04        71.2      82.1      52.2       5      15     345     350    1016    0.00
    12/12/2017 20:00       3   -12.0      0.04        71.2      82.1      52.2       6      18     352     341    1016    0.00
    12/12/2017 20:10       3   -11.8      0.04        71.5      82.1      52.2       5      11     358      21    1016    0.00
    12/12/2017 20:20       3   -11.9      0.04        71.3      82.1      52.2       5      15     349     342    1016    0.00
    12/12/2017 20:30       3   -11.9      0.04        71.0      82.1      52.2       5      14     348     346    1016    0.00
    12/12/2017 20:40       4   -11.5      0.04        70.9      82.1      52.2       5      12     356       7    1016    0.00
    12/12/2017 20:50       4   -10.7      0.04        70.5      82.1      52.2       6      16     356     347    1016    0.00
    12/12/2017 21:00       4   -10.8      0.04        70.4      82.1      52.2       6      17     354     325    1016    0.00
    12/12/2017 21:10       3   -11.1      0.04        70.3      82.1      52.2       6      14     354      17    1016    0.00
    12/12/2017 21:20       4   -11.3      0.04        70.2      82.1      52.2       7      21     353     353    1016    0.00
    12/12/2017 21:30       4   -11.0      0.04        70.3      82.1      52.2       7      17     347     328    1016    0.00
    12/12/2017 21:40       3   -11.4      0.04        70.1      82.1      52.2       5      13     351     322    1016    0.00
    12/12/2017 21:50       3   -11.9      0.04        70.2      82.1      52.2       8      22     349     333    1016    0.00
    12/12/2017 22:00       3   -12.2      0.04        70.2      82.1      52.2       7      21     346     339    1016    0.00
    12/12/2017 22:10       3   -12.1      0.04        70.0      82.1      52.2       6      18     347     325    1016    0.00
    12/12/2017 22:20       3   -11.5      0.04        70.1      82.1      52.2       5      12     343      14    1016    0.00
    12/12/2017 22:30       3    -9.6      0.04        70.0      82.1      52.2       7      16     342     340    1016    0.00
    12/12/2017 22:40       4    -9.5      0.04        69.8      82.1      52.2       6      14     341     352    1016    0.00
    12/12/2017 22:50       4    -9.1      0.04        69.7      82.1      52.2       5      14     342     340    1016    0.00
    12/12/2017 23:00       4   -10.3      0.04        70.1      82.1      52.2       7      18     340     354    1016    0.00
    12/12/2017 23:10       4   -10.9      0.04        70.2      82.1      52.2       6      17     337     309    1016    0.00
    12/12/2017 23:20       3   -11.8      0.04        70.5      82.1      52.2       7      20     341     355    1016    0.00
    12/12/2017 23:30       3   -11.6      0.04        70.8      82.1      52.2       8      22     344     324    1016    0.00
    12/12/2017 23:40       3   -11.3      0.04        70.7      82.1      52.2       7      19     340     320    1016    0.00
    12/12/2017 23:50       4   -10.9      0.04        70.4      82.1      52.2       6      15     342     351    1016    0.00
    12/13/2017 00:00       4   -10.8      0.04        70.3      82.1      52.2       6      16     345     337    1016    0.00
    12/13/2017 00:10       4    -9.8      0.04        70.3      70.4      70.1       5      17     341     351    1016    0.00
    12/13/2017 00:20       4    -9.1      0.04        70.3      70.6      70.0       5      13     340     335    1016    0.00
    12/13/2017 00:30       4    -9.1      0.04        70.1      70.6      69.8       5      13     348     335    1016    0.00
    12/13/2017 00:40       4    -9.0      0.04        69.9      70.6      69.7       4      13     344     354    1015    0.00
    12/13/2017 00:50       4    -9.0      0.04        70.0      70.6      69.7       5      14     340     354    1015    0.00
    12/13/2017 01:00       4    -9.7      0.04        70.1      70.6      69.7       6      15     340     351    1015    0.00
    12/13/2017 01:10       4    -9.4      0.04        69.7      70.6      69.6       5      15     339     349    1015    0.00
    12/13/2017 01:20       4    -9.7      0.04        69.8      70.6      69.6       7      15     344       9    1015    0.00
    12/13/2017 01:30       4   -10.0      0.04        70.0      70.6      69.6       7      18     340     353    1015    0.00
    12/13/2017 01:40       4    -9.7      0.04        69.7      70.6      69.4       6      15     344     342    1015    0.00
    12/13/2017 01:50       4    -9.9      0.04        69.9      70.6      69.4       7      20     339     330    1015    0.00
    12/13/2017 02:00       4    -9.4      0.04        70.0      70.6      69.4       7      17     342      29    1015    0.00
    12/13/2017 02:10       4    -9.1      0.04        70.4      70.6      69.4       6      14     338       9    1015    0.00
    12/13/2017 02:20       4    -8.7      0.04        70.4      70.6      69.4       6      17     340     313    1015    0.00
    12/13/2017 02:30       4    -8.6      0.04        70.4      70.7      69.4       6      16     343     344    1015    0.00
    12/13/2017 02:40       4    -8.4      0.04        70.5      70.7      69.4       6      17     344     329    1015    0.00
    12/13/2017 02:50       4    -8.1      0.04        70.4      70.7      69.4       6      17     344     342    1015    0.00
    12/13/2017 03:00       4    -7.8      0.04        70.2      70.7      69.4       5      14     345     331    1015    0.00
    12/13/2017 03:10       4    -7.4      0.04        70.2      70.7      69.4       5      15     341     349    1015    0.00
    12/13/2017 03:20       4    -6.7      0.04        70.4      70.7      69.4       5      11     343     330    1015    0.00
    12/13/2017 03:30       4    -6.4      0.04        70.5      70.8      69.4       5      13     349     353    1015    0.00
    12/13/2017 03:40       4    -6.4      0.04        70.5      70.8      69.4       4      13     344     333    1015    0.00
    12/13/2017 03:50       4    -6.2      0.04        70.4      70.8      69.4       4      13     343     337    1015    0.00
    12/13/2017 04:00       5    -6.3      0.04        70.5      70.8      69.4       4      15     346      16    1015    0.00
    12/13/2017 04:10       4    -6.6      0.04        70.5      70.9      69.4       5      14     338     328    1015    0.00
    12/13/2017 04:20       4    -6.7      0.04        70.5      70.9      69.4       4      11     339     345    1015    0.00
    12/13/2017 04:30       5    -6.1      0.04        70.7      71.0      69.4       4      14     343     354    1015    0.00
    12/13/2017 04:40       4    -6.3      0.04        70.9      71.3      69.4       6      14     341     352    1015    0.00
    12/13/2017 04:50       4    -6.1      0.04        70.7      71.3      69.4       4      13     349     321    1015    0.00
    12/13/2017 05:00       4    -5.8      0.04        70.5      71.3      69.4       4      10     346     334    1015    0.00
    12/13/2017 05:10       4    -5.7      0.04        70.7      71.3      69.4       4      11     343     329    1015    0.00
    12/13/2017 05:20       5    -5.6      0.04        70.7      71.3      69.4       5       9     337     338    1015    0.00
    12/13/2017 05:30       4    -5.5      0.04        70.5      71.3      69.4       5      12     337       7    1015    0.00
    12/13/2017 05:40       4    -5.8      0.04        70.7      71.3      69.4       5      14     344       8    1015    0.00
    12/13/2017 05:50       4    -5.9      0.04        70.7      71.3      69.4       5      15     340       7    1014    0.00
    12/13/2017 06:00       4    -6.6      0.04        71.2      71.5      69.4       6      16     342     331    1014    0.00
    12/13/2017 06:10       4    -6.8      0.04        71.1      71.5      69.4       6      16     348     336    1014    0.00
    12/13/2017 06:20       4    -6.9      0.04        70.6      71.5      69.4       5      16     346     349    1014    0.00
    12/13/2017 06:30       4    -6.9      0.04        70.0      71.5      69.4       5      14     352     289    1015    0.00
    12/13/2017 06:40       4    -6.7      0.04        69.9      71.5      69.4       5      14     350     354    1015    0.00
    12/13/2017 06:50       5    -6.4      0.04        69.8      71.5      69.4       3       9     352     347    1015    0.00
    12/13/2017 07:00       7    -4.2      0.04        69.8      71.5      69.2       2       7     312     314    1015    0.00
    12/13/2017 07:10       9     5.3      0.04        66.8      71.5      64.8       3       6     196     126    1015    0.00
    12/13/2017 07:20      11     5.3      0.04        63.7      71.5      63.2       2       5     136     139    1015    0.00
    12/13/2017 07:30      10     7.2      0.04        63.1      71.5      62.4       2       4     147     144    1015    0.00
    12/13/2017 07:40      10     6.1      0.04        63.1      71.5      62.4       0       4     146     141    1015    0.00
    12/13/2017 07:50       9     5.4      0.04        65.4      71.5      62.4       0       4     129      88    1015    0.00
    12/13/2017 08:00      13     9.7      0.04        66.2      71.5      62.4       2       5     139     127    1015    0.00
    12/13/2017 08:10      12    11.3      0.04        65.9      71.5      62.4       1       4     130     121    1015    0.00
    12/13/2017 08:20      11    10.1      0.04        67.0      71.5      62.4       0       4     119     167    1015    0.00
    12/13/2017 08:30      12     5.6      0.04        70.2      71.8      62.4       2      10     348     336    1015    0.00
    12/13/2017 08:40      13    14.7      0.04        67.6      71.8      62.4       3       7     150     163    1016    0.00
    12/13/2017 08:50      11    11.2      0.04        65.8      71.8      62.4       2       6     157     168    1016    0.00
    12/13/2017 09:00      12    12.1      0.04        67.3      71.8      62.4       2       5     157     146    1016    0.00
    12/13/2017 09:10      11    14.0      0.04        69.9      72.0      62.4       2       4     179     214    1016    0.00
    12/13/2017 09:20       5     6.4      0.04        73.8      75.5      62.4       3      11     357     328    1016    0.00
    12/13/2017 09:30       5     1.1      0.04        76.1      76.7      62.4       3      10     350       4    1016    0.00
    12/13/2017 09:40       5     1.4      0.04        77.3      77.7      62.4       4      12     359     337    1016    0.00
    12/13/2017 09:50       5     0.4      0.04        77.4      78.0      62.4       4      10      36      33    1016    0.00
    12/13/2017 10:00       5     0.2      0.04        77.3      78.0      62.4       3       9      28      38    1016    0.00
    12/13/2017 10:10       5     0.5      0.04        78.2      78.7      62.4       3       9      38      50    1016    0.00
    12/13/2017 10:20       5     0.2      0.04        78.3      78.8      62.4       5      10      38      38    1015    0.00
    12/13/2017 10:30       5     1.0      0.04        79.0      79.3      62.4       4       9      33      55    1015    0.00
    12/13/2017 10:40       5     0.7      0.04        79.1      79.5      62.4       5      11      27     350    1015    0.00
    12/13/2017 10:50       5     0.9      0.04        79.6      79.9      62.4       4      10      37      58    1015    0.00
    12/13/2017 11:00       4     1.2      0.04        79.9      80.6      62.4       5      10      20       2    1015    0.00
    12/13/2017 11:10       5     1.7      0.04        81.1      81.8      62.4       4      15     360     347    1015    0.00
    12/13/2017 11:20       5     1.9      0.04        81.6      82.1      62.4       5      11       7      21    1014    0.00
    12/13/2017 11:30       4     2.7      0.04        82.2      82.7      62.4       3      12     359     338    1014    0.00
    12/13/2017 11:40       4     2.5      0.04        82.6      83.3      62.4       4      10       1     344    1014    0.00
    12/13/2017 11:50       4     3.0      0.04        83.3      83.6      62.4       4       9       7     343    1014    0.00
    12/13/2017 12:00       4     2.8      0.04        83.3      83.7      62.4       3      12       2     346    1014    0.00
    12/13/2017 12:10       4     2.7      0.04        83.8      84.4      62.4       4       9       3     320    1014    0.00
    12/13/2017 12:20       4     3.1      0.04        84.4      84.9      62.4       2       6       9      15    1013    0.00
    12/13/2017 12:30       4     3.9      0.04        85.0      85.6      62.4       3      10      18     294    1013    0.00
    12/13/2017 12:40       4     3.7      0.04        85.5      85.7      62.4       4      12     353      14    1013    0.00
    12/13/2017 12:50       4     3.3      0.04        85.6      85.9      62.4       4       9     333     350    1013    0.00
    12/13/2017 13:00       5     3.7      0.04        85.5      85.9      62.4       4      12     320     265    1013    0.00
    12/13/2017 13:10       5     4.5      0.04        85.8      86.3      62.4       4       9     352     342    1012    0.00
    12/13/2017 13:20       5     6.0      0.04        85.8      86.3      62.4       4       8      39       2    1012    0.00
    12/13/2017 13:30       5     7.9      0.04        85.3      86.3      62.4       4       7      68      55    1012    0.00
    12/13/2017 13:40       4     5.7      0.04        85.4      86.3      62.4       2       6      91      83    1012    0.00
    12/13/2017 13:50       5     6.8      0.04        85.6      86.3      62.4       2       7      58      70    1012    0.00
    12/13/2017 14:00       5     5.2      0.04        86.1      86.3      62.4       2       6     344     309    1012    0.00
    12/13/2017 14:10       5     5.9      0.04        85.7      86.3      62.4       4      10      55      37    1012    0.00
    12/13/2017 14:20       4     4.9      0.04        86.2      86.6      62.4       4      12     347     338    1012    0.00
    12/13/2017 14:30       5     5.7      0.04        86.3      86.6      62.4       3       8      40      69    1012    0.00
    12/13/2017 14:40       7    10.1      0.04        85.4      86.6      62.4       4       8      72      46    1012    0.00
    12/13/2017 14:50       7    12.7      0.04        84.0      86.6      62.4       3       8      98      87    1012    0.00
    12/13/2017 15:00       7    12.3      0.04        83.7      86.6      62.4       3       6     107     114    1012    0.00
    12/13/2017 15:10       7    12.5      0.04        83.2      86.6      62.4       2       6     110      84    1012    0.00
    12/13/2017 15:20       7    12.6      0.04        82.5      86.6      62.4       3       6      96      97    1012    0.00
    12/13/2017 15:30       7    11.9      0.04        81.7      86.6      62.4       3       6     129     110    1012    0.00
    12/13/2017 15:40       7    11.4      0.04        80.7      86.6      62.4       3       7      78      62    1012    0.00
    12/13/2017 15:50       8    12.2      0.04        79.9      86.6      62.4       3       5      77      82    1012    0.00
    12/13/2017 16:00       7    10.9      0.04        79.3      86.6      62.4       4       7      79      85    1012    0.00
    12/13/2017 16:10       7    10.5      0.04        78.6      86.6      62.4       3       6      83      84    1012    0.00
    12/13/2017 16:20       8    10.6      0.04        77.6      86.6      62.4       4       6      72      82    1012    0.00
    12/13/2017 16:30       8    10.2      0.04        76.5      86.6      62.4       4       7      51      37    1012    0.00
    12/13/2017 16:40       8    10.2      0.04        75.3      86.6      62.4       2       5      63      38    1012    0.00
    12/13/2017 16:50       8    10.1      0.04        74.2      86.6      62.4       2       5      30      -0    1012    0.00
    12/13/2017 17:00       8     9.5      0.04        73.4      86.6      62.4       2       4      36      58    1012    0.00
    12/13/2017 17:10       9     9.9      0.04        73.0      86.6      62.4       2       5      44      90    1012    0.00
    12/13/2017 17:20      11    12.2      0.04        70.9      86.6      62.4       1       5     178     159    1013    0.00
    12/13/2017 17:30      12    12.8      0.04        68.9      86.6      62.4       0       2     306     288    1013    0.00
    12/13/2017 17:40      12    13.1      0.04        67.5      86.6      62.4       0       1      97      93    1013    0.00
    12/13/2017 17:50      13    13.9      0.04        66.8      86.6      62.4       0       2     318     328    1013    0.00
    12/13/2017 18:00      14    14.4      0.04        66.2      86.6      62.4       0       0     316     312    1013    0.00
    12/13/2017 18:10      14    14.4      0.04        65.4      86.6      62.4       0       2     339       4    1013    0.00
    12/13/2017 18:20      14    14.6      0.04        65.3      86.6      62.4       0       2     343     352    1013    0.00
    12/13/2017 18:30      16    15.2      0.04        63.9      86.6      62.4       0       3     138     162    1013    0.00
    12/13/2017 18:40      16    16.0      0.04        63.1      86.6      62.4       0       1     118     157    1013    0.00
    12/13/2017 18:50      16    16.1      0.04        63.0      86.6      62.4       1       3     344     340    1013    0.00
    12/13/2017 19:00      15    15.9      0.04        63.5      86.6      62.4       1       2      15     345    1013    0.00
    12/13/2017 19:10      18    16.9      0.04        62.2      86.6      60.8       1       3     250     244    1013    0.00
    12/13/2017 19:20      17    16.3      0.04        60.9      86.6      60.7       0       1     285     278    1013    0.00
    12/13/2017 19:30      17    16.1      0.04        61.0      86.6      60.7       0       3      83      96    1013    0.00
    12/13/2017 19:40      20    17.6      0.04        60.9      86.6      60.0       0       2      40      47    1013    0.00
    12/13/2017 19:50      19    18.8      0.04        59.8      86.6      59.3       0       2     351      34    1013    0.00
    12/13/2017 20:00      21    18.3      0.04        59.8      86.6      58.9       0       2     289     324    1013    0.00
    12/13/2017 20:10      21    18.8      0.04        58.6      86.6      58.1       0       1     331     332    1013    0.00
    12/13/2017 20:20      22    19.1      0.04        57.8      86.6      57.4       0       2     179      33    1013    0.00
    12/13/2017 20:30      23    19.3      0.04        58.5      86.6      57.4       0       1      41      28    1013    0.00
    12/13/2017 20:40      23    20.2      0.04        58.2      86.6      57.3       2       4      50     219    1013    0.00
    12/13/2017 20:50      23    20.5      0.04        57.6      86.6      57.3       1       3     192     224    1013    0.00
    12/13/2017 21:00      22    20.5      0.04        57.8      86.6      57.3       1       3      15      68    1013    0.00
    12/13/2017 21:10      24    20.6      0.04        57.5      86.6      56.4       1       3     298     336    1013    0.00
    12/13/2017 21:20      24    20.0      0.04        56.4      86.6      55.6       1       3     296     256    1013    0.00
    12/13/2017 21:30      25    19.4      0.04        55.4      86.6      54.8       0       2     289     286    1013    0.00
    12/13/2017 21:40      25    19.3      0.04        54.4      86.6      54.1       0       0       0     316    1013    0.00
    12/13/2017 21:50      24    19.0      0.04        54.5      86.6      54.1       0       2     307     334    1014    0.00
    12/13/2017 22:00      24    18.6      0.04        54.5      86.6      54.1       0       2     335     346    1013    0.00
    12/13/2017 22:10      27    19.0      0.04        54.1      86.6      53.6       0       2     345     346    1013    0.00
    12/13/2017 22:20      25    19.7      0.04        53.2      86.6      52.8       0       2     348     353    1013    0.00
    12/13/2017 22:30      26    19.2      0.04        53.7      86.6      52.8       0       2     332     339    1013    0.00
    12/13/2017 22:40      26    18.9      0.04        52.9      86.6      52.7       0       2     316     326    1013    0.00
    12/13/2017 22:50      26    19.2      0.04        53.1      86.6      52.7       2       2     343     342    1013    0.00
    12/13/2017 23:00      26    19.1      0.04        52.8      86.6      52.5       0       2     346     334    1013    0.00
    12/13/2017 23:10      27    18.9      0.04        52.8      86.6      52.5       2       2     340     337    1013    0.00
    12/13/2017 23:20      33    22.5      0.04        52.0      86.6      51.4       0       1     340     338    1013    0.00
    12/13/2017 23:30      31    21.4      0.04        51.4      86.6      51.1       0       2      57      61    1013    0.00
    12/13/2017 23:40      31    21.4      0.04        50.9      86.6      50.4       0       1      87     110    1013    0.00
    12/13/2017 23:50      30    20.7      0.04        50.3      86.6      50.0       0       0     128     127    1013    0.00
    12/14/2017 00:00      33    21.9      0.04        50.3      86.6      49.9       0       1     299     300    1013    0.00
    12/14/2017 00:10      31    21.7      0.04        50.6      51.0      50.2       0       1     314     336    1013    0.00
    12/14/2017 00:20      31    21.3      0.04        50.1      51.0      49.9       0       3     334     347    1013    0.00
    12/14/2017 00:30      34    21.3      0.04        50.0      51.0      49.6       0       0     346     338    1013    0.00
    12/14/2017 00:40      33    20.2      0.04        49.8      51.0      49.5       0       2     336     342    1013    0.00
    12/14/2017 00:50      33    21.1      0.04        49.2      51.0      48.9       0       0     346     346    1013    0.00
    12/14/2017 01:00      31    21.2      0.04        49.5      51.0      48.9       0       1     329     326    1013    0.00
    12/14/2017 01:10      33    21.2      0.04        49.1      51.0      48.7       0       0     114     116    1013    0.00
    12/14/2017 01:20      35    20.6      0.04        48.6      51.0      48.3       0       0     328     328    1013    0.00
    12/14/2017 01:30      32    20.7      0.04        48.5      51.0      48.3       0       1     346     306    1013    0.00
    12/14/2017 01:40      33    20.6      0.04        48.4      51.0      48.0       0       2     315     328    1013    0.00
    12/14/2017 01:50      34    20.4      0.04        47.7      51.0      47.3       0       1     132     131    1013    0.00
    12/14/2017 02:00      33    19.9      0.04        47.2      51.0      46.9       0       2     256     267    1013    0.00
    12/14/2017 02:10      30    18.1      0.04        47.7      51.0      46.7       0       3     335     349    1013    0.00
    12/14/2017 02:20      30    18.6      0.04        48.7      51.0      46.7       0       2     343     340    1013    0.00
    12/14/2017 02:30      30    19.4      0.04        48.8      51.0      46.7       0       2     315     329    1013    0.00
    12/14/2017 02:40      29    17.6      0.04        47.9      51.0      46.7       0       2     310      59    1013    0.00
    12/14/2017 02:50      33    18.1      0.04        48.3      51.0      46.7       0       2     334     338    1013    0.00
    12/14/2017 03:00      32    19.0      0.04        48.1      51.0      46.7       0       3     342     334    1013    0.00
    12/14/2017 03:10      33    19.1      0.04        47.4      51.0      46.7       0       2      92      90    1013    0.00
    12/14/2017 03:20      39    20.5      0.04        46.6      51.0      45.9       0       2     351     325    1013    0.00
    12/14/2017 03:30      34    20.4      0.04        45.8      51.0      45.6       0       0      48      46    1013    0.00
    12/14/2017 03:40      36    19.9      0.04        46.1      51.0      45.6       0       2     242     290    1013    0.00
    12/14/2017 03:50      34    20.3      0.04        46.1      51.0      45.6       2       4     297     303    1013    0.00
    12/14/2017 04:00      28    17.9      0.04        46.9      51.0      45.6       2       7     311     338    1013    0.00
    12/14/2017 04:10      25    16.6      0.04        49.5      51.0      45.6       3       9     122      83    1013    0.00
    12/14/2017 04:20      25    15.7      0.04        50.5      51.0      45.6       1       6      38      28    1013    0.00
    12/14/2017 04:30      28    16.5      0.04        49.7      51.0      45.6       0       3     109     100    1013    0.00
    12/14/2017 04:40      28    17.2      0.04        48.5      51.0      45.6       2       5     113      86    1013    0.00
    12/14/2017 04:50      27    16.7      0.04        49.0      51.0      45.6       3       8     100     154    1013    0.00
    12/14/2017 05:00      27    16.9      0.04        49.3      51.0      45.6       2       6      74      92    1012    0.00
    12/14/2017 05:10      24    16.1      0.04        49.7      51.0      45.6       3       8     122     143    1013    0.00
    12/14/2017 05:20      26    15.9      0.04        50.5      51.0      45.6       1       5     109     153    1013    0.00
    12/14/2017 05:30      27    16.6      0.04        49.5      51.0      45.6       2       6     124     106    1013    0.00
    12/14/2017 05:40      29    17.1      0.04        48.6      51.0      45.6       0       3     174     272    1013    0.00
    12/14/2017 05:50      32    17.2      0.04        47.8      51.0      45.6       0       3     187     146    1013    0.00
    12/14/2017 06:00      32    17.4      0.04        47.7      51.0      45.6       0       4     156     123    1014    0.00
    12/14/2017 06:10      31    18.3      0.04        47.0      51.0      45.6       1       4     241     275    1014    0.00
    12/14/2017 06:20      28    17.6      0.04        47.5      51.0      45.6       0       4     356      50    1014    0.00
    12/14/2017 06:30      27    17.2      0.04        47.9      51.0      45.6       1       4      64     316    1014    0.00
    12/14/2017 06:40      27    17.0      0.04        48.6      51.0      45.6       1       5     259     157    1014    0.00
    12/14/2017 06:50      26    18.5      0.04        49.2      51.0      45.6       2       9     212     158    1014    0.00
    12/14/2017 07:00      21    14.3      0.04        51.9      53.0      45.6       2       5      75     160    1014    0.00
    12/14/2017 07:10      24    14.8      0.04        52.6      53.0      45.6       2       4     159     101    1014    0.00
    12/14/2017 07:20       9     9.6      0.04        56.1      61.3      45.6       3      11     321     308    1014    0.00
    12/14/2017 07:30       7     2.2      0.04        66.6      69.1      45.6       5      13     339     286    1014    0.00
    12/14/2017 07:40       6     1.9      0.04        69.7      70.4      45.6       6      15     345     326    1014    0.00
    12/14/2017 07:50       7     2.2      0.04        70.5      70.7      45.6       4      18     352     176    1014    0.00
    12/14/2017 08:00       7     2.1      0.04        70.7      71.0      45.6       5      13     342     300    1015    0.00
    12/14/2017 08:10       6     1.9      0.04        71.1      71.3      45.6       6      14     341     355    1015    0.00
    12/14/2017 08:20       7     3.2      0.04        72.0      72.8      45.6       7      16     348     354    1015    0.00
    12/14/2017 08:30       7     4.0      0.04        73.0      73.3      45.6       6      15     354     343    1015    0.00
    12/14/2017 08:40       6     4.9      0.04        73.8      74.3      45.6       6      16     350     344    1015    0.00
    12/14/2017 08:50       7     5.1      0.04        74.3      74.6      45.6       6      15     360      37    1015    0.00
    12/14/2017 09:00       7     5.9      0.04        74.7      75.0      45.6       7      16     358      17    1015    0.00
    12/14/2017 09:10       7     6.7      0.04        75.3      76.0      45.6       7      15       2      23    1015    0.00
    12/14/2017 09:20       7     7.7      0.04        75.9      76.2      45.6       6      17     357     338    1015    0.00
    12/14/2017 09:30       7     7.7      0.04        75.9      76.2      45.6       8      18     353     345    1015    0.00
    12/14/2017 09:40       7     7.8      0.04        76.1      76.4      45.6       7      19     351       5    1015    0.00
    12/14/2017 09:50       7     8.3      0.04        76.8      77.2      45.6       8      18     357     332    1015    0.00
    12/14/2017 10:00       7     9.1      0.04        77.7      78.5      45.6       7      18     358     338    1015    0.00
    12/14/2017 10:10       7     9.7      0.04        78.7      79.2      45.6       7      15       9      12    1015    0.00
    12/14/2017 10:20       7    10.1      0.04        79.5      80.0      45.6       8      23       7      29    1015    0.00
    12/14/2017 10:30       7    10.2      0.04        80.1      80.4      45.6       9      18       4     339    1015    0.00
    12/14/2017 10:40       7    10.5      0.04        80.5      80.9      45.6       8      17       9       7    1015    0.00
    12/14/2017 10:50       7    10.2      0.04        80.8      81.1      45.6       8      16      18      79    1015    0.00
    12/14/2017 11:00       7    10.2      0.04        81.0      81.3      45.6       7      20      21      12    1015    0.00
    12/14/2017 11:10       7     9.8      0.04        80.7      81.3      45.6       9      19      10     353    1015    0.00
    12/14/2017 11:20       7     9.7      0.04        80.6      81.3      45.6       9      28      26      55    1015    0.00
    12/14/2017 11:30       7    10.1      0.04        80.9      81.3      45.6      10      26      12     347    1015    0.00
    12/14/2017 11:40       7    10.4      0.04        80.8      81.3      45.6       7      20      22      35    1015    0.00
    12/14/2017 11:50       7    10.3      0.04        80.5      81.3      45.6      11      22       7      28    1015    0.00
    12/14/2017 12:00       7    10.2      0.04        80.3      81.3      45.6      12      24       4       1    1014    0.00
    12/14/2017 12:10       7    10.1      0.04        80.3      81.3      45.6      10      21     360     344    1014    0.00
    12/14/2017 12:20       7    10.2      0.04        80.7      81.3      45.6       9      19      12      22    1014    0.00
    12/14/2017 12:30       7    10.1      0.04        80.5      81.3      45.6      10      21     358     340    1014    0.00
    12/14/2017 12:40       7    10.4      0.04        80.9      81.4      45.6       8      19      13      40    1014    0.00
    12/14/2017 12:50       7     9.9      0.04        80.6      81.4      45.6      11      25     359     334    1014    0.00
    12/14/2017 13:00       7    10.1      0.04        80.3      81.4      45.6      10      25       6     324    1014    0.00
    12/14/2017 13:10       7     9.8      0.04        80.0      81.4      45.6      11      21       6      22    1014    0.00
    12/14/2017 13:20       7    10.4      0.04        80.2      81.4      45.6       8      19       4      10    1014    0.00
    12/14/2017 13:30       7    10.6      0.04        80.4      81.4      45.6       7      17       9      33    1014    0.00
    12/14/2017 13:40       7    10.6      0.04        80.1      81.4      45.6       9      24     358     354    1014    0.00
    12/14/2017 13:50       7    10.6      0.04        79.7      81.4      45.6       9      19       8      53    1014    0.00
    12/14/2017 14:00       7    10.8      0.04        79.8      81.4      45.6       8      18       0     272    1014    0.00
    12/14/2017 14:10       7    10.7      0.04        80.1      81.4      45.6       8      20       6       5    1015    0.00
    12/14/2017 14:20       7    10.6      0.04        80.2      81.4      45.6       7      20       3     328    1015    0.00
    12/14/2017 14:30       7    10.2      0.04        80.3      81.4      45.6       8      18       5     349    1015    0.00
    12/14/2017 14:40       7    10.2      0.04        80.2      81.4      45.6       7      17     358     354    1015    0.00
    12/14/2017 14:50       7     9.8      0.04        80.1      81.4      45.6       8      19     359     354    1015    0.00
    12/14/2017 15:00       7    10.2      0.04        79.9      81.4      45.6       6      16     352     323    1015    0.00
    12/14/2017 15:10       7     9.9      0.04        79.3      81.4      45.6       7      16     345     334    1015    0.00
    12/14/2017 15:20       7    10.0      0.04        79.0      81.4      45.6       7      16     345      25    1015    0.00
    12/14/2017 15:30       7     9.9      0.04        78.8      81.4      45.6       7      17     354      43    1015    0.00
    12/14/2017 15:40       7     8.9      0.04        78.6      81.4      45.6       6      15     357      23    1015    0.00
    12/14/2017 15:50       7     8.4      0.04        78.4      81.4      45.6       7      16     357     317    1015    0.00
    12/14/2017 16:00       7     8.5      0.04        78.0      81.4      45.6       8      18     357     347    1015    0.00
    12/14/2017 16:10       7     8.4      0.04        77.7      81.4      45.6       8      18     354       3    1015    0.00
    12/14/2017 16:20       7     8.1      0.04        77.3      81.4      45.6       7      17     347      20    1015    0.00
    12/14/2017 16:30       7     8.1      0.04        76.7      81.4      45.6       8      17       1      -0    1015    0.00
    12/14/2017 16:40       7     7.8      0.04        76.4      81.4      45.6       9      20     352       5    1015    0.00
    12/14/2017 16:50       7     7.8      0.04        76.0      81.4      45.6       7      16     350     350    1015    0.00
    12/14/2017 17:00       7     8.0      0.04        75.6      81.4      45.6       8      17     352     332    1015    0.00
    12/14/2017 17:10       7     7.8      0.04        75.3      81.4      45.6       7      17     338     345    1016    0.00
    12/14/2017 17:20       7     7.9      0.04        74.9      81.4      45.6       5      17     343     351    1016    0.00
    12/14/2017 17:30       7     7.2      0.04        74.9      81.4      45.6       6      18     345     320    1016    0.00
    12/14/2017 17:40       7     6.9      0.04        74.9      81.4      45.6       5      15     342     341    1016    0.00
    12/14/2017 17:50       7     7.0      0.04        74.7      81.4      45.6       6      15     344     314    1016    0.00
    12/14/2017 18:00       8     7.5      0.04        74.4      81.4      45.6       5      13     343      41    1017    0.00
    12/14/2017 18:10       8     8.4      0.04        73.6      81.4      45.6       5      11     341     316    1017    0.00
    12/14/2017 18:20       8     8.4      0.04        73.2      81.4      45.6       5      14     337     344    1017    0.00
    12/14/2017 18:30       8     8.4      0.04        73.0      81.4      45.6       5      12     334       9    1017    0.00
    12/14/2017 18:40       8     8.2      0.04        72.9      81.4      45.6       6      14     339     332    1017    0.00
    12/14/2017 18:50       8     8.0      0.04        72.8      81.4      45.6       5      13     341     347    1017    0.00
    12/14/2017 19:00       8     8.0      0.04        72.6      81.4      45.6       4      13     345     327    1017    0.00
    12/14/2017 19:10       8     7.9      0.04        72.5      81.4      45.6       5      11     335     323    1017    0.00
    12/14/2017 19:20       8     7.7      0.04        72.5      81.4      45.6       7      14     335     315    1017    0.00
    12/14/2017 19:30       8     7.5      0.04        72.5      81.4      45.6       6      11     338     332    1017    0.00
    12/14/2017 19:40       7     6.7      0.04        72.6      81.4      45.6       7      15     336       9    1017    0.00
    12/14/2017 19:50       7     5.9      0.04        72.9      81.4      45.6       8      16     335     306    1017    0.00
    12/14/2017 20:00       7     5.7      0.04        72.9      81.4      45.6       9      18     338     347    1017    0.00
    12/14/2017 20:10       7     5.8      0.04        72.7      81.4      45.6       8      15     335     325    1017    0.00
    12/14/2017 20:20       7     5.5      0.04        72.5      81.4      45.6       7      14     337     319    1017    0.00
    12/14/2017 20:30       7     5.4      0.04        72.4      81.4      45.6       8      18     336     328    1017    0.00
    12/14/2017 20:40       8     5.7      0.04        72.1      81.4      45.6       7      16     336      26    1017    0.00
    12/14/2017 20:50       7     5.9      0.04        71.9      81.4      45.6       7      16     338      31    1017    0.00
    12/14/2017 21:00       8     5.9      0.04        72.0      81.4      45.6       7      16     335     331    1017    0.00
    12/14/2017 21:10       7     6.1      0.04        71.8      81.4      45.6       7      15     335     346    1017    0.00
    12/14/2017 21:20       7     6.0      0.04        71.9      81.4      45.6       6      19     337     353    1017    0.00
    12/14/2017 21:30       7     5.6      0.04        72.2      81.4      45.6       8      17     342     318    1017    0.00
    12/14/2017 21:40       7     5.6      0.04        71.9      81.4      45.6       7      15     339     341    1017    0.00
    12/14/2017 21:50       7     5.0      0.04        72.1      81.4      45.6       6      17     344     354    1017    0.00
    12/14/2017 22:00       7     4.2      0.04        72.2      81.4      45.6       6      14     348      12    1017    0.00
    12/14/2017 22:10       6     3.3      0.04        72.5      81.4      45.6       6      18     338     328    1017    0.00
    12/14/2017 22:20       6     2.5      0.04        73.1      81.4      45.6       4      13     342     339    1018    0.00
    12/14/2017 22:30       6     2.9      0.04        72.6      81.4      45.6       3      11     341      39    1018    0.00
    12/14/2017 22:40       6     3.0      0.04        72.7      81.4      45.6       4      13     341      10    1018    0.00
    12/14/2017 22:50       7     3.1      0.04        72.7      81.4      45.6       6      13     347     341    1018    0.00
    12/14/2017 23:00       7     3.5      0.04        72.6      81.4      45.6       6      18     349     286    1018    0.00
    12/14/2017 23:10       7     4.0      0.04        72.5      81.4      45.6       6      21     344     354    1018    0.00
    12/14/2017 23:20       7     3.9      0.04        72.5      81.4      45.6       8      19     352     319    1018    0.00
    12/14/2017 23:30       7     4.3      0.04        72.5      81.4      45.6       6      17     346     329    1018    0.00
    12/14/2017 23:40       7     3.9      0.04        72.3      81.4      45.6       6      23     348     335    1018    0.00
    12/14/2017 23:50       7     3.8      0.04        72.7      81.4      45.6       6      16     341     323    1018    0.00
    12/15/2017 00:00       7     4.0      0.04        72.6      81.4      45.6       6      15     344     331    1018    0.00
    12/15/2017 00:10       7     4.3      0.04        72.1      72.5      71.7       4      12     345     307    1018    0.00
    12/15/2017 00:20       7     4.6      0.04        71.6      72.5      71.3       4      12     354       7    1018    0.00
    12/15/2017 00:30       7     4.6      0.04        71.7      72.5      71.3       4      14     337     332    1018    0.00
    12/15/2017 00:40       7     5.1      0.04        71.3      72.5      71.0       4      14     342      28    1018    0.00
    12/15/2017 00:50       7     5.1      0.04        71.2      72.5      70.8       5      15     340     348    1018    0.00
    12/15/2017 01:00       7     4.9      0.04        71.5      72.5      70.8       6      15     341     316    1018    0.00
    12/15/2017 01:10       7     4.5      0.04        72.0      72.5      70.8       7      18     346     322    1018    0.00
    12/15/2017 01:20       7     4.7      0.04        71.7      72.5      70.8       6      17     349     346    1018    0.00
    12/15/2017 01:30       7     4.3      0.04        71.8      72.5      70.8       7      17     351     338    1018    0.00
    12/15/2017 01:40       7     3.8      0.04        72.2      72.5      70.8       7      18     346     354    1018    0.00
    12/15/2017 01:50       7     4.9      0.04        71.2      72.5      70.8       7      16     340     330    1018    0.00
    12/15/2017 02:00       8     6.3      0.04        70.4      72.5      69.6       5      12     346     352    1018    0.00
    12/15/2017 02:10       9     7.1      0.04        69.2      72.5      68.9       6      12       0     340    1018    0.00
    12/15/2017 02:20       9     7.2      0.04        69.2      72.5      68.9       7      15     357     343    1018    0.00
    12/15/2017 02:30       9     7.1      0.04        69.4      72.5      68.9       5      13       1     346    1018    0.00
    12/15/2017 02:40       9     7.4      0.04        69.2      72.5      68.9       5      15     357     339    1018    0.00
    12/15/2017 02:50       9     7.6      0.04        68.9      72.5      68.6       5      17     345     340    1018    0.00
    12/15/2017 03:00       9     7.6      0.04        68.8      72.5      68.6       7      15     344       8    1018    0.00
    12/15/2017 03:10       9     7.7      0.04        68.6      72.5      68.3       6      19     349     342    1018    0.00
    12/15/2017 03:20       9     7.2      0.04        68.7      72.5      68.3       6      19     348     336    1018    0.00
    12/15/2017 03:30       9     7.3      0.04        69.1      72.5      68.3       7      22     351     315    1018    0.00
    12/15/2017 03:40       9     7.7      0.04        68.9      72.5      68.3       7      20     346       4    1018    0.00
    12/15/2017 03:50       9     7.8      0.04        68.5      72.5      68.2       7      19     343     331    1018    0.00
    12/15/2017 04:00       9     7.7      0.04        68.7      72.5      68.2       7      17     351     342    1018    0.00
    12/15/2017 04:10       9     7.4      0.04        68.6      72.5      68.2       7      18     353     354    1018    0.00
    12/15/2017 04:20       9     7.3      0.04        68.4      72.5      68.1       6      15     354     341    1018    0.00
    12/15/2017 04:30       9     7.1      0.04        68.5      72.5      68.1       5      15     348       0    1018    0.00
    12/15/2017 04:40       9     7.0      0.04        68.6      72.5      68.1       5      14     349     348    1018    0.00
    12/15/2017 04:50       9     6.7      0.04        68.4      72.5      68.1       5      12     357     313    1018    0.00
    12/15/2017 05:00       9     6.3      0.04        68.4      72.5      68.1       5      11       0       1    1018    0.00
    12/15/2017 05:10       9     6.7      0.04        68.0      72.5      67.5       4      12     353     329    1018    0.00
    12/15/2017 05:20       9     7.0      0.04        67.7      72.5      67.4       6      16     351       1    1018    0.00
    12/15/2017 05:30       9     7.4      0.04        67.3      72.5      67.0       4      10     350     347    1018    0.00
    12/15/2017 05:40      10     7.6      0.04        66.8      72.5      66.4       4      10     346     322    1018    0.00
    12/15/2017 05:50      10     7.6      0.04        66.8      72.5      66.4       4      11     337     324    1018    0.00
    12/15/2017 06:00      10     8.0      0.04        66.8      72.5      66.4       4       9     347     354    1018    0.00
    12/15/2017 06:10      10     8.3      0.04        66.5      72.5      66.0       3      10     344     320    1018    0.00
    12/15/2017 06:20      10     8.4      0.04        66.1      72.5      65.8       4       9     348       5    1018    0.00
    12/15/2017 06:30      10     8.4      0.04        66.3      72.5      65.8       4      10     338     340    1019    0.00
    12/15/2017 06:40      11     8.4      0.04        66.3      72.5      65.8       3       9     326     305    1019    0.00
    12/15/2017 06:50      13    10.8      0.04        63.9      72.5      62.0       1       5     257     254    1019    0.00
    12/15/2017 07:00      14    10.9      0.04        61.0      72.5      60.3       0       2     275     262    1019    0.00
    12/15/2017 07:10      15    11.3      0.04        59.5      72.5      58.9       1       4     256     236    1019    0.00
    12/15/2017 07:20      15    11.5      0.04        59.4      72.5      58.9       0       4     246     246    1019    0.00
    12/15/2017 07:30      14    11.0      0.04        60.3      72.5      58.9       0       2     283     259    1019    0.00
    12/15/2017 07:40      16    11.9      0.04        60.4      72.5      58.9       0       3     257     248    1019    0.00
    12/15/2017 07:50      15    13.1      0.04        60.1      72.5      58.9       0       4     289     178    1019    0.00
    12/15/2017 08:00      14    12.9      0.04        61.8      72.5      58.9       1       3     207     213    1019    0.00
    12/15/2017 08:10      14    13.6      0.04        62.6      72.5      58.9       1       4     208     181    1019    0.00
    12/15/2017 08:20      14    12.8      0.04        62.8      72.5      58.9       1       4     273     247    1019    0.00
    12/15/2017 08:30      13    12.7      0.04        62.9      72.5      58.9       0       2     173     180    1019    0.00
    12/15/2017 08:40      14    13.0      0.04        64.2      72.5      58.9       2       3     155     162    1019    0.00
    12/15/2017 08:50      13    14.5      0.04        66.1      72.5      58.9       2       4     151     144    1020    0.00
    12/15/2017 09:00      13    15.3      0.04        67.4      72.5      58.9       1       3     160     172    1020    0.00
    12/15/2017 09:10      13    16.0      0.04        68.8      72.5      58.9       0       2     212     181    1020    0.00
    12/15/2017 09:20      13    16.9      0.04        71.0      72.5      58.9       1       4     186     196    1020    0.00
    12/15/2017 09:30      12    16.1      0.04        71.5      72.5      58.9       2       4     197     186    1020    0.00
    12/15/2017 09:40      11    15.0      0.04        73.1      73.9      58.9       0       2     192     200    1020    0.00
    12/15/2017 09:50      11    15.7      0.04        74.3      75.2      58.9       2       3     182     173    1020    0.00
    12/15/2017 10:00      12    17.1      0.04        75.1      75.7      58.9       2       4     199     192    1020    0.00
    12/15/2017 10:10      11    17.6      0.04        74.2      75.7      58.9       2       4     198     196    1020    0.00
    12/15/2017 10:20      11    17.2      0.04        73.8      75.7      58.9       3       6     200     198    1020    0.00
    12/15/2017 10:30      11    16.7      0.04        74.0      75.7      58.9       3       6     201     194    1020    0.00
    12/15/2017 10:40      10    16.5      0.04        75.2      75.8      58.9       2       4     212     188    1019    0.00
    12/15/2017 10:50       9    16.6      0.04        76.6      77.4      58.9       1       4     207     200    1019    0.00
    12/15/2017 11:00       9    14.7      0.04        77.2      77.9      58.9       0       3     218     195    1019    0.00
    12/15/2017 11:10       9    14.3      0.04        78.5      78.9      58.9       0       3     186     173    1019    0.00
    12/15/2017 11:20       8    14.7      0.04        79.3      80.0      58.9       1       3     162     174    1019    0.00
    12/15/2017 11:30       9    13.3      0.04        79.3      80.3      58.9       2       4     155     196    1019    0.00
    12/15/2017 11:40       7    13.2      0.04        80.5      81.1      58.9       2       5     169     159    1018    0.00
    12/15/2017 11:50       7    10.5      0.04        80.7      81.2      58.9       3       5     188     171    1018    0.00
    12/15/2017 12:00       6     8.9      0.04        80.9      81.6      58.9       2       5     184     157    1018    0.00
    12/15/2017 12:10       6     7.6      0.04        81.5      82.1      58.9       3       6     174     163    1018    0.00
    12/15/2017 12:20       5     6.0      0.04        80.9      82.1      58.9       2       6     225     200    1017    0.00
    12/15/2017 12:30       6     9.0      0.04        81.1      82.1      58.9       3       8     194     182    1017    0.00
    12/15/2017 12:40       5     8.7      0.04        81.6      82.1      58.9       4       7     175     178    1017    0.00
    12/15/2017 12:50       6     9.1      0.04        82.1      82.9      58.9       3       8     164     167    1017    0.00
    12/15/2017 13:00       6     9.0      0.04        81.5      82.9      58.9       3       7     140     139    1016    0.00
    12/15/2017 13:10       7     8.8      0.04        81.2      82.9      58.9       3       5     186     190    1016    0.00
    12/15/2017 13:20       6     9.4      0.04        82.0      82.9      58.9       2       5     143     156    1016    0.00
    12/15/2017 13:30       6    10.8      0.04        81.9      82.9      58.9       4      10     140     155    1016    0.00
    12/15/2017 13:40       7    10.0      0.04        82.0      82.9      58.9       3       6      94     157    1016    0.00
    12/15/2017 13:50       7    10.7      0.04        81.8      82.9      58.9       3       7     129     185    1016    0.00
    12/15/2017 14:00       7    10.1      0.04        81.8      82.9      58.9       4       8     167     163    1015    0.00
    12/15/2017 14:10       7    10.4      0.04        81.4      82.9      58.9       4       8     142     119    1015    0.00
    12/15/2017 14:20       7    10.7      0.04        81.2      82.9      58.9       2       7     120     124    1015    0.00
    12/15/2017 14:30       7    10.1      0.04        80.8      82.9      58.9       4       8     135     148    1015    0.00
    12/15/2017 14:40       7    10.7      0.04        80.8      82.9      58.9       3       7     136     155    1015    0.00
    12/15/2017 14:50       7    10.0      0.04        80.7      82.9      58.9       3       6     159      83    1015    0.00
    12/15/2017 15:00       8    11.4      0.04        79.5      82.9      58.9       4      10     252     246    1015    0.00
    12/15/2017 15:10       8    11.8      0.04        78.7      82.9      58.9       2       5     272     235    1015    0.00
    12/15/2017 15:20       8    10.9      0.04        77.7      82.9      58.9       4      10     260     249    1015    0.00
    12/15/2017 15:30       8    10.8      0.04        77.0      82.9      58.9       4      10     260     268    1015    0.00
    12/15/2017 15:40       8    10.9      0.04        76.5      82.9      58.9       3       6     249     246    1015    0.00
    12/15/2017 15:50      10    12.6      0.04        75.6      82.9      58.9       3       5     248     239    1015    0.00
    12/15/2017 16:00       8    11.8      0.04        74.2      82.9      58.9       4       8     258     263    1015    0.00
    12/15/2017 16:10       9     9.8      0.04        73.6      82.9      58.9       5       9     259     236    1015    0.00
    12/15/2017 16:20       9     9.5      0.04        73.0      82.9      58.9       5       9     262     244    1015    0.00
    12/15/2017 16:30       9     9.8      0.04        72.3      82.9      58.9       3       7     259     253    1015    0.00
    12/15/2017 16:40       9     9.8      0.04        71.7      82.9      58.9       3       7     256     267    1015    0.00
    12/15/2017 16:50      10    11.1      0.04        70.8      82.9      58.9       1       4     269     243    1015    0.00
    12/15/2017 17:00      11    12.1      0.04        69.1      82.9      58.9       1       3     277     272    1015    0.00
    12/15/2017 17:10      11    12.1      0.04        67.7      82.9      58.9       0       1     308     320    1015    0.00
    12/15/2017 17:20      12    11.3      0.04        67.0      82.9      58.9       0       0     317     325    1015    0.00
    12/15/2017 17:30      13    12.2      0.04        66.2      82.9      58.9       1       3     288     279    1014    0.00
    12/15/2017 17:40      13    13.6      0.04        65.5      82.9      58.9       1       3     278     291    1014    0.00
    12/15/2017 17:50      13    13.5      0.04        64.9      82.9      58.9       0       1     100      83    1014    0.00
    12/15/2017 18:00      13    12.5      0.04        64.7      82.9      58.9       0       2     294     272    1014    0.00
    12/15/2017 18:10      13    12.8      0.04        64.3      82.9      58.9       0       0     146     167    1014    0.00
    12/15/2017 18:20      13    12.3      0.04        63.9      82.9      58.9       1       5     293     277    1014    0.00
    12/15/2017 18:30      12    11.8      0.04        64.7      82.9      58.9       3       6     289     285    1014    0.00
    12/15/2017 18:40      11    10.9      0.04        65.9      82.9      58.9       2       4     276     269    1014    0.00
    12/15/2017 18:50      12    11.0      0.04        65.7      82.9      58.9       0       2     276     304    1014    0.00
    12/15/2017 19:00      13    11.7      0.04        64.5      82.9      58.9       0       0     259     251    1014    0.00
    12/15/2017 19:10      14    12.5      0.04        63.2      82.9      58.9       0       1     266     274    1014    0.00
    12/15/2017 19:20      15    12.7      0.04        62.2      82.9      58.9       0       0       0     254    1014    0.00
    12/15/2017 19:30      15    13.1      0.04        61.4      82.9      58.9       0       0     173     173    1014    0.00
    12/15/2017 19:40      15    13.5      0.04        60.9      82.9      58.9       0       0       0     143    1014    0.00
    12/15/2017 19:50      18    14.1      0.04        60.3      82.9      58.9       0       0       0     119    1014    0.00
    12/15/2017 20:00      17    14.9      0.04        59.4      82.9      58.9       0       0     298     298    1014    0.00
    12/15/2017 20:10      17    14.6      0.04        59.5      82.9      58.9       0       0       0     301    1014    0.00
    12/15/2017 20:20      17    14.9      0.04        59.1      82.9      58.7       0       0      28      32    1014    0.00
    12/15/2017 20:30      21    16.6      0.04        58.4      82.9      57.8       0       0       0     336    1013    0.00
    12/15/2017 20:40      22    18.3      0.04        57.5      82.9      57.0       0       0       0     285    1013    0.00
    12/15/2017 20:50      22    18.6      0.04        56.8      82.9      56.6       0       0     142     142    1013    0.00
    12/15/2017 21:00      23    18.9      0.04        56.8      82.9      56.6       0       0      79      78    1013    0.00
    12/15/2017 21:10      23    19.6      0.04        56.9      82.9      56.6       0       0      16      19    1013    0.00
    12/15/2017 21:20      24    19.6      0.04        56.5      82.9      56.1       0       0       0      16    1013    0.00
    12/15/2017 21:30      25    20.2      0.04        55.9      82.9      55.5       0       1      57      56    1013    0.00
    12/15/2017 21:40      24    20.3      0.04        56.1      82.9      55.5       0       1     345     346    1013    0.00
    12/15/2017 21:50      24    19.3      0.04        56.0      82.9      55.5       0       0     334     333    1013    0.00
    12/15/2017 22:00      23    18.9      0.04        55.4      82.9      55.2       0       0     333     332    1013    0.00
    12/15/2017 22:10      22    18.0      0.04        55.8      82.9      55.2       0       1     350     346    1013    0.00
    12/15/2017 22:20      24    18.2      0.04        55.3      82.9      54.9       0       2      19      18    1013    0.00
    12/15/2017 22:30      26    19.5      0.04        54.5      82.9      54.0       0       2      22      35    1013    0.00
    12/15/2017 22:40      28    19.7      0.04        53.9      82.9      53.5       0       1      96      94    1012    0.00
    12/15/2017 22:50      30    20.6      0.04        53.6      82.9      53.3       0       0      98      98    1012    0.00
    12/15/2017 23:00      27    21.2      0.04        53.4      82.9      53.1       0       0     295     291    1012    0.00
    12/15/2017 23:10      27    20.4      0.04        53.2      82.9      53.1       0       0       0     226    1012    0.00
    12/15/2017 23:20      28    21.0      0.04        53.4      82.9      53.1       0       0       6     355    1012    0.00
    12/15/2017 23:30      31    22.7      0.04        53.4      82.9      52.8       0       1     290     290    1012    0.00
    12/15/2017 23:40      28    21.9      0.04        53.0      82.9      52.6       0       2     351      50    1012    0.00
    12/15/2017 23:50      25    19.9      0.04        54.0      82.9      52.6       1       4      34      33    1012    0.00
    12/16/2017 00:00      23    18.2      0.04        55.1      82.9      52.6       1       3      23      65    1012    0.00
    12/16/2017 00:10      21    17.0      0.04        55.8      56.5      55.3       1       4       9       4    1011    0.00
    12/16/2017 00:20      20    16.7      0.04        56.3      56.5      55.3       2       5       2       5    1011    0.00
    12/16/2017 00:30      19    14.6      0.04        56.6      57.0      55.3       2       4      10      44    1011    0.00
    12/16/2017 00:40      18    15.5      0.04        56.7      57.0      55.3       1       4      30      28    1011    0.00
    12/16/2017 00:50      24    17.8      0.04        56.1      57.0      55.2       0       3     158     176    1011    0.00
    12/16/2017 01:00      25    18.8      0.04        54.6      57.0      53.8       0       0       0     178    1011    0.00
    12/16/2017 01:10      26    19.4      0.04        53.4      57.0      53.1       0       2      13      17    1011    0.00
    12/16/2017 01:20      22    17.8      0.04        54.1      57.0      53.1       2       4      30      21    1011    0.00
    12/16/2017 01:30      22    17.4      0.04        55.3      57.0      53.1       1       4      20      10    1011    0.00
    12/16/2017 01:40      24    17.3      0.04        55.3      57.0      53.1       0       3      38      31    1010    0.00
    12/16/2017 01:50      24    18.7      0.04        54.7      57.0      53.1       1       4      18      54    1010    0.00
    12/16/2017 02:00      25    18.5      0.04        55.2      57.0      53.1       0       4      49      30    1010    0.00
    12/16/2017 02:10      27    20.4      0.04        54.6      57.0      53.1       0       2      48      68    1010    0.00
    12/16/2017 02:20      27    20.7      0.04        54.5      57.0      53.1       1       2     353     342    1010    0.00
    12/16/2017 02:30      29    21.7      0.04        54.8      57.0      53.1       0       3      11      36    1010    0.00
    12/16/2017 02:40      27    22.1      0.04        54.4      57.0      53.1       2       4      34      35    1010    0.00
    12/16/2017 02:50      26    21.3      0.04        55.5      57.0      53.1       2       4      55      56    1009    0.00
    12/16/2017 03:00      28    21.5      0.04        55.5      57.0      53.1       0       3      56      84    1009    0.00
    12/16/2017 03:10      26    22.0      0.04        55.4      57.0      53.1       2       4      51      45    1009    0.00
    12/16/2017 03:20      25    21.0      0.04        55.4      57.0      53.1       2       5      39      33    1009    0.00
    12/16/2017 03:30      26    20.7      0.04        55.4      57.0      53.1       1       4      32      16    1008    0.00
    12/16/2017 03:40      28    21.9      0.04        55.0      57.0      53.1       1       3      78      43    1008    0.00
    12/16/2017 03:50      28    21.8      0.04        54.7      57.0      53.1       2       3      62      80    1008    0.00
    12/16/2017 04:00      33    24.3      0.04        54.6      57.0      53.1       2       3      71      92    1007    0.00
    12/16/2017 04:10      28    24.0      0.04        54.7      57.0      53.1       3       9      42      96    1007    0.00
    12/16/2017 04:20      39    25.9      0.04        54.8      57.0      53.1       5      12      96      77    1005    0.00
    12/16/2017 04:30      44    31.8      0.04        54.8      57.0      53.1       3       6     353      66    1006    0.00
    12/16/2017 04:40      43    32.6      0.04        54.4      57.0      53.1       1       4     285     261    1006    0.00
    12/16/2017 04:50      44    32.4      0.04        54.1      57.0      53.1       3       6     264     260    1006    0.00
    12/16/2017 05:00      45    32.8      0.04        54.0      57.0      53.1       1       5     292     290    1006    0.00
    12/16/2017 05:10      43    32.5      0.04        53.8      57.0      53.1       1       4     259     243    1006    0.00
    12/16/2017 05:20      43    31.4      0.04        53.6      57.0      53.1       0       2     303     331    1006    0.00
    12/16/2017 05:30      46    31.5      0.04        52.3      57.0      51.6       2       4     180     194    1006    0.00
    12/16/2017 05:40      49    30.9      0.04        51.6      57.0      51.3       2       5     222     203    1006    0.00
    12/16/2017 05:50      50    33.3      0.04        51.4      57.0      51.2       2       5     242     243    1007    0.00
    12/16/2017 06:00      52    33.5      0.04        51.0      57.0      50.7       0       0     272     279    1006    0.00
    12/16/2017 06:10      50    33.4      0.04        50.9      57.0      50.6       2       4      60      57    1006    0.00
    12/16/2017 06:20      53    33.4      0.04        50.6      57.0      50.1       3       6      72      70    1006    0.00
    12/16/2017 06:30      54    33.9      0.04        50.1      57.0      49.9       3       6      62      44    1006    0.00
    12/16/2017 06:40      53    34.0      0.04        50.1      57.0      49.9       2       4      32      17    1006    0.00
    12/16/2017 06:50      50    33.2      0.04        50.3      57.0      49.9       2       5     357     349    1006    0.00
    12/16/2017 07:00      42    30.0      0.04        50.3      57.0      49.9       2       6      16      44    1006    0.00
    12/16/2017 07:10      35    26.9      0.04        51.8      57.0      49.9       3       6      45      58    1006    0.00
    12/16/2017 07:20      35    25.6      0.04        52.5      57.0      49.9       4       6      59      69    1006    0.00
    12/16/2017 07:30      33    25.2      0.04        52.9      57.0      49.9       4       7      63      42    1006    0.00
    12/16/2017 07:40      31    24.6      0.04        53.9      57.0      49.9       2       6      35      52    1005    0.00
    12/16/2017 07:50      26    23.4      0.04        56.2      58.1      49.9       4      10       1      -0    1005    0.00
    12/16/2017 08:00      26    23.6      0.04        58.6      59.2      49.9       5      15     338     354    1005    0.00
    12/16/2017 08:10      26    24.3      0.04        59.3      59.7      49.9       5      17     341     336    1005    0.00
    12/16/2017 08:20      26    24.6      0.04        59.7      60.0      49.9       5      15     339     319    1005    0.00
    12/16/2017 08:30      26    24.7      0.04        60.0      60.3      49.9       4      12     339     304    1005    0.00
    12/16/2017 08:40      25    24.8      0.04        60.3      60.5      49.9       5      10     343      30    1005    0.00
    12/16/2017 08:50      25    25.0      0.04        60.7      61.0      49.9       5      12     335     333    1005    0.00
    12/16/2017 09:00      26    25.3      0.04        61.0      61.3      49.9       4      15     344     330    1005    0.00
    12/16/2017 09:10      25    25.7      0.04        61.4      61.7      49.9       5      15     341       0    1005    0.00
    12/16/2017 09:20      25    26.0      0.04        62.0      62.5      49.9       4      13     354     344    1005    0.00
    12/16/2017 09:30      25    26.0      0.04        62.5      62.7      49.9       4      10     355      40    1005    0.00
    12/16/2017 09:40      24    26.2      0.04        62.9      63.5      49.9       4      12     355     347    1005    0.00
    12/16/2017 09:50      23    26.1      0.04        63.9      64.5      49.9       3       9       6     321    1005    0.00
    12/16/2017 10:00      23    25.3      0.04        64.5      64.9      49.9       3       9      24      60    1005    0.00
    12/16/2017 10:10      22    24.8      0.04        64.5      64.9      49.9       3       7      17       0    1005    0.00
    12/16/2017 10:20      22    24.9      0.04        64.8      65.3      49.9       3       8      18       2    1005    0.00
    12/16/2017 10:30      22    25.1      0.04        65.5      65.8      49.9       4      12     352     312    1005    0.00
    12/16/2017 10:40      22    25.5      0.04        65.4      66.0      49.9       4      12     348     354    1005    0.00
    12/16/2017 10:50      21    25.7      0.04        66.1      66.6      49.9       3      12     346     344    1005    0.00
    12/16/2017 11:00      20    23.5      0.04        66.5      66.9      49.9       3       9     346     340    1005    0.00
    12/16/2017 11:10      17    21.6      0.04        66.5      66.9      49.9       4       7       4      21    1004    0.00
    12/16/2017 11:20      17    20.6      0.04        67.0      67.6      49.9       3       8      24      25    1004    0.00
    12/16/2017 11:30      16    20.5      0.04        67.2      67.7      49.9       2       7      17     348    1004    0.00
    12/16/2017 11:40      17    19.9      0.04        67.7      68.3      49.9       3       8       5      -0    1004    0.00
    12/16/2017 11:50      16    20.8      0.04        68.1      68.4      49.9       2       6      18      45    1004    0.00
    12/16/2017 12:00      16    20.5      0.04        68.7      69.1      49.9       2       6      34       0    1004    0.00
    12/16/2017 12:10      17    20.6      0.04        68.5      69.1      49.9       2       5     350     336    1004    0.00
    12/16/2017 12:20      17    22.5      0.04        68.8      69.6      49.9       3       7     145     126    1004    0.00
    12/16/2017 12:30      17    21.7      0.04        67.8      69.6      49.9       4       8     128     143    1004    0.00
    12/16/2017 12:40      16    20.8      0.04        68.1      69.6      49.9       3       9     130     142    1004    0.00
    12/16/2017 12:50      18    20.6      0.04        67.6      69.6      49.9       3       8     102     103    1004    0.00
    12/16/2017 13:00      17    22.4      0.04        68.0      69.6      49.9       4       9     132     129    1003    0.00
    12/16/2017 13:10      18    22.1      0.04        68.4      69.6      49.9       5       8     159     151    1003    0.00
    12/16/2017 13:20      17    22.3      0.04        68.4      69.6      49.9       5       9     160     173    1003    0.00
    12/16/2017 13:30      17    23.4      0.04        69.1      69.8      49.9       3       7     159     142    1004    0.00
    12/16/2017 13:40      17    23.6      0.04        69.1      69.8      49.9       3       7     165     141    1004    0.00
    12/16/2017 13:50      22    24.6      0.04        69.3      69.8      49.9       2       8     177     165    1004    0.00
    12/16/2017 14:00      18    27.1      0.04        69.2      69.8      49.9       2       5     166     145    1004    0.00
    12/16/2017 14:10      19    24.7      0.04        69.6      70.0      49.9       1       4     202     201    1004    0.00
    12/16/2017 14:20      22    26.9      0.04        68.9      70.0      49.9       2       5     161     171    1004    0.00
    12/16/2017 14:30      21    28.1      0.04        68.9      70.0      49.9       1       6      46     134    1004    0.00
    12/16/2017 14:40      21    27.5      0.04        69.3      70.1      49.9       0       3     190     178    1004    0.00
    12/16/2017 14:50      17    25.6      0.04        69.5      70.1      49.9       1       3     244     180    1004    0.00
    12/16/2017 15:00      17    22.6      0.04        69.6      70.1      49.9       1       6     306     341    1004    0.00
    12/16/2017 15:10      17    22.0      0.04        68.7      70.1      49.9       2       8     311     354    1004    0.00
    12/16/2017 15:20      17    21.3      0.04        67.9      70.1      49.9       4      11     324     349    1004    0.00
    12/16/2017 15:30      18    21.3      0.04        67.0      70.1      49.9       3       9     305     279    1004    0.00
    12/16/2017 15:40      18    21.2      0.04        66.4      70.1      49.9       4      11     318     341    1004    0.00
    12/16/2017 15:50      18    21.1      0.04        65.7      70.1      49.9       4      12     320     348    1004    0.00
    12/16/2017 16:00      19    21.4      0.04        65.0      70.1      49.9       4      11     315     298    1004    0.00
    12/16/2017 16:10      20    21.6      0.04        64.6      70.1      49.9       4      12     318     352    1004    0.00
    12/16/2017 16:20      20    21.9      0.04        64.1      70.1      49.9       4      13     329     327    1004    0.00
    12/16/2017 16:30      20    22.1      0.04        63.6      70.1      49.9       4      11     339     340    1004    0.00
    12/16/2017 16:40      20    22.2      0.04        63.2      70.1      49.9       4      11     333     337    1004    0.00
    12/16/2017 16:50      21    21.9      0.04        62.7      70.1      49.9       2       7     331       0    1004    0.00
    12/16/2017 17:00      35    23.6      0.04        62.2      70.1      49.9       1       5     167     165    1005    0.00